Main page
METAR-TAF:

METAR-TAF

Airports :

Hrodna Airport

Grodno, Belarus

latitude: 53-36-06N, longitude: 024-03-18E, elevation: 135 m

Current weather observation

The report was made 16 minutes ago, at 04:15 UTC
Wind 8 kt from the West
Temperature -6°C
Humidity 93%
Pressure 1018 hPa
Visibility: 8000 m
Broken clouds at a height of 900 ft
Broken clouds at a height of 20000 ft

METAR: UMMG 210415Z 28004MPS 8000 BKN009 BKN200 M06/M07 Q1018 NOSIG

Time: 07:31 (04:31 UTC)

Forecast

The report was made 2 hours and 31 minutes ago, at 02:00 UTC
Forecast valid from 21 at 03 UTC to 21 at 12 UTC
Wind 12 kt from the West
Visibility: 6000 m
Broken clouds at a height of 700 ft
Broken clouds at a height of 1300 ft
Temporary
from 21 at 03 UTC to 21 at 12 UTC
Visibility: 2000 m
Broken clouds at a height of 500 ft
Broken clouds at a height of 1000 ft, Cumulonimbus.
snow showers, mist

TAF: UMMG 210200Z 2103/2112 28006MPS 6000 BKN007 BKN013 TEMPO 2103/2112 2000 SHSN BR BKN005 BKN010CB

Weather observations and forecasts of more than 4000 airports (METAR and TAF reports).

The available stations are represented by yellow and red dots on the map.

Hover mouse over dot to see the name of the station.

Then click to see weather observations and forecasts.

To change the map : click on the green buttons with a black cross to zoom in, on the green button with a dash to zoom out, or on the green arrows for adjacent maps.


METAR-TAF: